Time;durP1;ratioP1;P1;durP2;ratioP2;P2;SDS_P1;SDS_P2;PMS_P1;PMS_P2;Temp;Humidity;BMP_temperature;BMP_pressure;BME280_temperature;BME280_humidity;BME280_pressure;Samples;Min_cycle;Max_cycle;Signal;HPM_P1;HPM_P2
2023/05/28 00:00:10;;;;;;;10.27;5.55;;;17.10;67.60;;;;;;5119003;27;20499;-84
2023/05/28 00:02:37;;;;;;;10.32;6.30;;;17.10;67.60;;;;;;5119036;27;20441;-84
2023/05/28 00:05:03;;;;;;;12.05;5.72;;;17.00;67.70;;;;;;5118963;27;20392;-84
2023/05/28 00:07:30;;;;;;;10.85;5.75;;;17.00;68.00;;;;;;5135855;27;20526;-84
2023/05/28 00:09:59;;;;;;;9.02;5.55;;;17.00;68.10;;;;;;5118957;27;20114;-84
2023/05/28 00:12:25;;;;;;;11.52;6.38;;;16.90;68.30;;;;;;5136068;27;20064;-84
2023/05/28 00:14:50;;;;;;;11.30;5.82;;;16.80;68.70;;;;;;5135793;27;20472;-84
2023/05/28 00:17:16;;;;;;;9.18;5.80;;;16.80;69.00;;;;;;5135805;27;20019;-84
2023/05/28 00:19:43;;;;;;;10.88;6.07;;;16.70;69.00;;;;;;5135607;27;20058;-84
2023/05/28 00:22:08;;;;;;;12.02;5.82;;;16.70;68.80;;;;;;5135823;27;20464;-84
2023/05/28 00:24:34;;;;;;;10.43;6.00;;;16.80;68.80;;;;;;5118474;27;20068;-84
2023/05/28 00:27:00;;;;;;;10.75;5.30;;;16.80;68.50;;;;;;5135621;27;20438;-84
2023/05/28 00:29:26;;;;;;;12.65;5.88;;;16.70;68.40;;;;;;5118406;27;20031;-84
2023/05/28 00:31:56;;;;;;;14.30;6.40;;;16.70;68.40;;;;;;5135483;27;20038;-84
2023/05/28 00:34:25;;;;;;;11.95;5.60;;;16.60;68.60;;;;;;5135523;27;20060;-84
2023/05/28 00:36:51;;;;;;;11.75;4.90;;;16.50;68.80;;;;;;5135405;27;20426;-84
2023/05/28 00:39:18;;;;;;;11.65;6.20;;;16.50;68.90;;;;;;5118295;27;20027;-84
2023/05/28 00:41:44;;;;;;;11.65;5.60;;;16.50;68.80;;;;;;5118288;27;20227;-84
2023/05/28 00:44:10;;;;;;;14.05;5.60;;;16.50;69.10;;;;;;5136516;27;20476;-84
2023/05/28 00:46:44;;;;;;;11.57;5.85;;;16.50;69.30;;;;;;5135226;27;20069;-84
2023/05/28 00:49:11;;;;;;;10.43;5.68;;;16.50;69.40;;;;;;5134969;27;20066;-84
2023/05/28 00:51:37;;;;;;;10.07;5.40;;;16.50;69.30;;;;;;5135223;27;20501;-84
2023/05/28 00:54:03;;;;;;;10.60;5.25;;;16.50;69.30;;;;;;5099798;28;20028;-84
2023/05/28 00:56:31;;;;;;;12.70;5.90;;;16.50;69.40;;;;;;5134753;27;20031;-84
2023/05/28 00:58:57;;;;;;;10.10;5.80;;;16.50;69.60;;;;;;5117961;27;20455;-84
2023/05/28 01:01:26;;;;;;;14.80;5.72;;;16.40;69.50;;;;;;5134955;27;20503;-84
2023/05/28 01:03:52;;;;;;;10.45;5.80;;;16.40;69.70;;;;;;5117735;27;20024;-84
2023/05/28 01:06:20;;;;;;;12.20;5.57;;;16.30;70.50;;;;;;5117742;27;20056;-84
2023/05/28 01:08:47;;;;;;;11.93;5.57;;;16.40;69.60;;;;;;5117687;27;20476;-84
2023/05/28 01:11:17;;;;;;;12.77;5.88;;;16.40;69.80;;;;;;5117562;27;20023;-84
2023/05/28 01:13:44;;;;;;;11.15;6.28;;;16.40;69.80;;;;;;5134714;27;20026;-84
2023/05/28 01:16:10;;;;;;;10.95;5.47;;;16.40;69.60;;;;;;5117551;27;20021;-84
2023/05/28 01:18:39;;;;;;;11.65;5.20;;;16.40;69.70;;;;;;5134629;27;20376;-84
2023/05/28 01:21:06;;;;;;;16.00;5.95;;;16.40;70.10;;;;;;5134512;27;20557;-84
2023/05/28 01:23:46;;;;;;;9.68;5.35;;;16.40;70.20;;;;;;5117575;27;20015;-84
2023/05/28 01:26:13;;;;;;;10.25;5.93;;;16.40;70.70;;;;;;5134399;27;20019;-84
2023/05/28 01:28:44;;;;;;;8.02;4.50;;;16.30;70.80;;;;;;5117251;27;20418;-84
2023/05/28 01:31:10;;;;;;;10.55;5.40;;;16.30;70.70;;;;;;5101576;27;20034;-84
2023/05/28 01:33:36;;;;;;;11.23;5.05;;;16.30;70.60;;;;;;5100157;27;20480;-84
2023/05/28 01:36:05;;;;;;;10.00;4.70;;;16.30;70.60;;;;;;5134349;27;20093;-83
2023/05/28 01:38:33;;;;;;;11.02;5.30;;;16.40;70.50;;;;;;5134175;27;20027;-84
2023/05/28 01:41:00;;;;;;;9.85;4.95;;;16.40;70.40;;;;;;5100438;27;20079;-84
2023/05/28 01:43:26;;;;;;;10.57;4.90;;;16.40;70.50;;;;;;5116752;27;20035;-84
2023/05/28 01:45:52;;;;;;;10.90;5.30;;;16.40;70.50;;;;;;5100032;27;20041;-84
2023/05/28 01:48:18;;;;;;;14.85;5.18;;;16.40;70.50;;;;;;5133778;27;20038;-84
2023/05/28 01:50:44;;;;;;;11.52;4.40;;;16.40;70.40;;;;;;5099959;27;20027;-84
2023/05/28 01:53:10;;;;;;;9.40;4.88;;;16.40;70.30;;;;;;5116935;27;20038;-84
2023/05/28 01:55:36;;;;;;;14.02;4.90;;;16.40;70.10;;;;;;5099827;27;20114;-84
2023/05/28 01:58:02;;;;;;;10.73;4.88;;;16.40;69.90;;;;;;5116817;27;20643;-84
2023/05/28 02:00:28;;;;;;;7.40;4.43;;;16.40;69.90;;;;;;5116513;27;20041;-84
2023/05/28 02:02:53;;;;;;;8.55;4.05;;;16.40;70.20;;;;;;5099772;27;20380;-84
2023/05/28 02:05:19;;;;;;;8.63;4.18;;;16.30;70.30;;;;;;5099062;27;20050;-84
2023/05/28 02:07:45;;;;;;;10.82;4.57;;;16.30;70.80;;;;;;5116719;27;20545;-84
2023/05/28 02:10:11;;;;;;;11.10;5.03;;;16.20;71.10;;;;;;5116413;27;20027;-84
2023/05/28 02:12:37;;;;;;;11.98;4.75;;;16.10;71.30;;;;;;5116310;27;20035;-84
2023/05/28 02:15:03;;;;;;;10.07;4.55;;;16.10;71.60;;;;;;5134578;27;20072;-84
2023/05/28 02:17:29;;;;;;;9.68;5.05;;;16.10;71.30;;;;;;5133330;27;20031;-84
2023/05/28 02:19:55;;;;;;;10.02;4.68;;;16.10;71.10;;;;;;5099255;27;20079;-84
2023/05/28 02:22:20;;;;;;;9.27;4.30;;;16.10;71.20;;;;;;5099303;27;20024;-84
2023/05/28 02:24:46;;;;;;;10.10;4.43;;;16.10;71.00;;;;;;5099057;27;20510;-84
2023/05/28 02:27:13;;;;;;;9.38;4.18;;;16.10;71.30;;;;;;5099147;27;20499;-83
2023/05/28 02:29:38;;;;;;;9.32;4.60;;;16.00;71.80;;;;;;5133232;27;20503;-84
2023/05/28 02:32:05;;;;;;;7.97;4.30;;;16.00;71.80;;;;;;5099214;27;20031;-84
2023/05/28 02:34:31;;;;;;;8.63;4.30;;;15.90;72.00;;;;;;5115834;27;20510;-84
2023/05/28 02:36:56;;;;;;;12.68;4.50;;;15.80;72.00;;;;;;5115801;27;20047;-84
2023/05/28 02:39:23;;;;;;;10.57;4.60;;;15.80;72.10;;;;;;5098774;27;20481;-84
2023/05/28 02:41:49;;;;;;;10.23;4.65;;;15.80;72.20;;;;;;5132956;27;20012;-83
2023/05/28 02:44:15;;;;;;;13.07;4.53;;;15.80;71.90;;;;;;5115698;27;20130;-83
2023/05/28 02:46:41;;;;;;;10.55;4.97;;;15.70;72.10;;;;;;5098893;27;20526;-83
2023/05/28 02:49:07;;;;;;;8.73;4.60;;;15.80;72.20;;;;;;5132747;27;20457;-84
2023/05/28 02:51:32;;;;;;;10.85;4.80;;;15.70;72.10;;;;;;5115743;27;20442;-83
2023/05/28 02:53:58;;;;;;;7.78;4.00;;;15.70;72.30;;;;;;5098490;27;20031;-84
2023/05/28 02:56:24;;;;;;;9.35;4.57;;;15.70;72.20;;;;;;5098399;27;20031;-84
2023/05/28 02:58:51;;;;;;;9.50;4.07;;;15.60;72.10;;;;;;5115606;27;20043;-83
2023/05/28 03:01:16;;;;;;;11.18;4.75;;;15.60;72.20;;;;;;5115709;27;20028;-84
2023/05/28 03:03:42;;;;;;;13.88;5.18;;;15.60;72.50;;;;;;5132638;27;20022;-84
2023/05/28 03:06:08;;;;;;;9.32;4.50;;;15.50;72.80;;;;;;5098500;27;20498;-83
2023/05/28 03:08:33;;;;;;;9.65;4.63;;;15.50;73.00;;;;;;5132476;27;20022;-83
2023/05/28 03:10:59;;;;;;;13.18;4.70;;;15.50;73.30;;;;;;5132587;27;20031;-84
2023/05/28 03:13:25;;;;;;;11.60;4.45;;;15.50;73.50;;;;;;5115307;27;20034;-83
2023/05/28 03:15:50;;;;;;;10.82;4.32;;;15.50;73.50;;;;;;5115265;27;20054;-84
2023/05/28 03:18:16;;;;;;;9.88;4.13;;;15.50;73.30;;;;;;5097395;27;20039;-83
2023/05/28 03:20:41;;;;;;;9.75;4.32;;;15.50;73.00;;;;;;5115319;27;20119;-84
2023/05/28 03:23:07;;;;;;;12.43;4.93;;;15.50;73.00;;;;;;5132170;27;20019;-83
2023/05/28 03:25:34;;;;;;;10.82;4.47;;;15.40;73.00;;;;;;5115314;27;20035;-84
2023/05/28 03:27:59;;;;;;;9.18;4.60;;;15.40;73.10;;;;;;5115092;28;20112;-84
2023/05/28 03:30:25;;;;;;;7.32;3.97;;;15.40;73.60;;;;;;5132526;27;20055;-84
2023/05/28 03:32:51;;;;;;;11.05;5.13;;;15.30;74.00;;;;;;5098133;28;20046;-84
2023/05/28 03:35:16;;;;;;;12.65;4.55;;;15.30;74.20;;;;;;5098069;28;20038;-84
2023/05/28 03:37:42;;;;;;;8.00;4.22;;;15.30;74.10;;;;;;5132155;27;20038;-84
2023/05/28 03:40:08;;;;;;;8.98;4.63;;;15.30;74.30;;;;;;5098045;28;20027;-84
2023/05/28 03:42:35;;;;;;;12.10;4.68;;;15.30;74.30;;;;;;5133472;27;20563;-84
2023/05/28 03:45:01;;;;;;;11.98;4.90;;;15.30;74.50;;;;;;5114970;28;20115;-84
2023/05/28 03:47:27;;;;;;;10.70;4.30;;;15.30;74.30;;;;;;5114835;28;20063;-84
2023/05/28 03:49:52;;;;;;;9.30;4.60;;;15.30;74.20;;;;;;5132079;27;20019;-83
2023/05/28 03:52:18;;;;;;;14.05;5.10;;;15.30;74.30;;;;;;5114921;28;20023;-83
2023/05/28 03:54:44;;;;;;;12.38;5.35;;;15.30;74.20;;;;;;5097912;28;20434;-84
2023/05/28 03:57:10;;;;;;;12.02;5.65;;;15.20;74.10;;;;;;5115170;28;20034;-84
2023/05/28 03:59:36;;;;;;;8.88;4.88;;;15.20;74.10;;;;;;5097775;28;20106;-84
2023/05/28 04:02:02;;;;;;;10.98;4.80;;;15.20;74.00;;;;;;5131862;27;20035;-84
2023/05/28 04:04:27;;;;;;;10.45;5.25;;;15.10;74.60;;;;;;5114765;28;20031;-84
2023/05/28 04:06:53;;;;;;;8.25;4.53;;;15.00;75.10;;;;;;5097785;28;20517;-83
2023/05/28 04:09:19;;;;;;;13.10;5.53;;;15.00;75.10;;;;;;5097857;28;20065;-84
2023/05/28 04:11:44;;;;;;;11.57;5.25;;;15.00;75.10;;;;;;5092044;28;20055;-84
2023/05/28 04:14:10;;;;;;;13.38;4.72;;;15.10;75.20;;;;;;5094243;28;20023;-84
2023/05/28 04:16:35;;;;;;;8.73;4.38;;;15.00;75.30;;;;;;5111136;28;20031;-83
2023/05/28 04:19:02;;;;;;;8.77;5.05;;;15.00;75.30;;;;;;5111308;28;20047;-84
2023/05/28 04:21:28;;;;;;;8.73;5.07;;;15.00;75.40;;;;;;5093479;28;20054;-83
2023/05/28 04:23:55;;;;;;;11.13;4.78;;;15.00;76.40;;;;;;5093427;28;20050;-84
2023/05/28 04:26:22;;;;;;;11.32;5.22;;;15.00;75.50;;;;;;5111100;28;20024;-84
2023/05/28 04:28:48;;;;;;;11.40;5.38;;;15.10;75.60;;;;;;5112095;28;20532;-84
2023/05/28 04:31:14;;;;;;;13.65;5.13;;;15.10;76.50;;;;;;5098236;28;20080;-84
2023/05/28 04:33:39;;;;;;;11.93;5.45;;;15.20;75.90;;;;;;5114908;28;20024;-84
2023/05/28 04:36:08;;;;;;;10.98;5.38;;;15.20;76.00;;;;;;5097838;28;20024;-83
2023/05/28 04:38:34;;;;;;;13.70;5.78;;;15.20;76.10;;;;;;5114880;28;20020;-84
2023/05/28 04:41:00;;;;;;;13.50;5.25;;;15.20;76.30;;;;;;5114853;28;20551;-84
2023/05/28 04:43:26;;;;;;;12.57;5.80;;;15.20;76.40;;;;;;5097646;28;20120;-84
2023/05/28 04:45:53;;;;;;;13.45;5.65;;;15.30;76.50;;;;;;5097708;28;20057;-84
2023/05/28 04:48:19;;;;;;;11.95;5.60;;;15.30;76.70;;;;;;5097612;28;20040;-84
2023/05/28 04:50:45;;;;;;;11.23;5.55;;;15.40;76.80;;;;;;5115899;28;20477;-84
2023/05/28 04:53:10;;;;;;;15.52;5.90;;;15.40;77.00;;;;;;5114481;28;20020;-84
2023/05/28 04:55:36;;;;;;;10.43;5.55;;;15.40;77.00;;;;;;5097629;28;20036;-84
2023/05/28 04:58:02;;;;;;;13.13;6.30;;;15.40;77.20;;;;;;5097555;28;20028;-84
2023/05/28 05:00:28;;;;;;;15.13;5.40;;;15.40;77.20;;;;;;5097375;28;20473;-84
2023/05/28 05:02:54;;;;;;;15.63;5.88;;;15.50;77.50;;;;;;5114506;28;20023;-84
2023/05/28 05:05:20;;;;;;;15.93;6.15;;;15.50;77.50;;;;;;5097340;28;20027;-84
2023/05/28 05:07:46;;;;;;;14.00;5.68;;;15.50;77.80;;;;;;5114466;28;20028;-84
2023/05/28 05:10:13;;;;;;;10.70;5.90;;;15.60;78.00;;;;;;5115307;28;20030;-84
2023/05/28 05:12:39;;;;;;;15.75;6.05;;;15.60;78.10;;;;;;5114045;28;20042;-84
2023/05/28 05:15:06;;;;;;;14.80;6.10;;;15.60;78.10;;;;;;5114156;28;20115;-84
2023/05/28 05:17:32;;;;;;;12.73;6.03;;;15.60;78.20;;;;;;5113977;28;20065;-84
2023/05/28 05:19:59;;;;;;;15.13;5.82;;;15.70;78.50;;;;;;5096993;28;20024;-84
2023/05/28 05:22:25;;;;;;;17.20;6.07;;;15.70;78.70;;;;;;5113999;28;20043;-83
2023/05/28 05:24:50;;;;;;;12.70;6.45;;;15.70;78.90;;;;;;5097013;28;20500;-84
2023/05/28 05:27:16;;;;;;;13.65;6.05;;;15.70;78.90;;;;;;5096926;28;20031;-84
2023/05/28 05:29:42;;;;;;;16.85;7.10;;;15.80;79.10;;;;;;5096686;28;20027;-83
2023/05/28 05:32:11;;;;;;;11.70;5.75;;;15.80;79.00;;;;;;5096942;28;20027;-84
2023/05/28 05:34:36;;;;;;;16.92;6.35;;;15.80;79.20;;;;;;5096731;28;20045;-84
2023/05/28 05:37:02;;;;;;;10.82;5.32;;;15.80;79.40;;;;;;5096817;28;20540;-84
2023/05/28 05:39:28;;;;;;;13.50;6.20;;;15.90;79.50;;;;;;5113493;28;20032;-84
2023/05/28 05:41:54;;;;;;;15.00;5.97;;;15.90;79.50;;;;;;5112988;28;20381;-83
2023/05/28 05:44:20;;;;;;;15.52;6.43;;;15.90;79.60;;;;;;5113535;28;20319;-84
2023/05/28 05:46:46;;;;;;;14.23;7.05;;;16.00;79.80;;;;;;5096589;28;20226;-84
2023/05/28 05:49:12;;;;;;;16.42;6.45;;;16.00;79.80;;;;;;5113402;28;20048;-84
2023/05/28 05:51:38;;;;;;;13.75;6.03;;;16.10;79.60;;;;;;5096434;28;20491;-84
2023/05/28 05:54:04;;;;;;;13.20;6.22;;;16.10;79.50;;;;;;5096360;28;20024;-84
2023/05/28 05:56:29;;;;;;;14.70;6.18;;;16.10;79.40;;;;;;5096206;28;20031;-84
2023/05/28 05:58:57;;;;;;;15.82;6.55;;;16.20;79.40;;;;;;5113061;28;20032;-84
2023/05/28 06:01:23;;;;;;;14.77;7.15;;;16.30;79.50;;;;;;5116566;27;20039;-84
2023/05/28 06:03:48;;;;;;;15.32;6.82;;;16.30;79.80;;;;;;5116638;27;20080;-84
2023/05/28 06:06:14;;;;;;;14.27;5.75;;;16.30;79.90;;;;;;5130546;27;20027;-84
2023/05/28 06:08:40;;;;;;;12.52;5.53;;;16.40;79.70;;;;;;5099488;27;20029;-84
2023/05/28 06:11:06;;;;;;;17.52;5.70;;;16.40;79.60;;;;;;5116443;27;20027;-84
2023/05/28 06:13:31;;;;;;;11.27;6.05;;;16.50;79.60;;;;;;5116371;27;20480;-84
2023/05/28 06:15:59;;;;;;;11.60;5.60;;;16.50;79.40;;;;;;5098203;27;20028;-84
2023/05/28 06:18:26;;;;;;;14.65;6.43;;;16.60;79.30;;;;;;5115499;27;20059;-84
2023/05/28 06:20:51;;;;;;;13.35;5.30;;;16.70;79.20;;;;;;5132624;27;20027;-84
2023/05/28 06:23:17;;;;;;;16.67;5.68;;;16.70;79.20;;;;;;5116257;27;20043;-84
2023/05/28 06:25:43;;;;;;;11.95;4.93;;;16.80;78.80;;;;;;5116358;27;20027;-85
2023/05/28 06:28:10;;;;;;;9.93;5.38;;;16.90;78.40;;;;;;5134414;27;20027;-85
2023/05/28 06:30:35;;;;;;;10.00;5.07;;;16.90;78.00;;;;;;5099183;27;20043;-84
2023/05/28 06:33:01;;;;;;;12.43;5.88;;;16.90;77.30;;;;;;5115987;27;20027;-85
2023/05/28 06:35:27;;;;;;;10.23;5.30;;;17.00;77.10;;;;;;5099006;27;20515;-84
2023/05/28 06:37:53;;;;;;;11.75;5.05;;;17.00;77.10;;;;;;5099025;27;20030;-85
2023/05/28 06:40:19;;;;;;;13.55;5.57;;;17.00;77.00;;;;;;5098849;27;20122;-84
2023/05/28 06:42:44;;;;;;;13.63;5.93;;;17.10;76.90;;;;;;5115339;27;20031;-84
2023/05/28 06:45:10;;;;;;;13.38;6.22;;;17.10;76.90;;;;;;5115798;27;20026;-84
2023/05/28 06:47:36;;;;;;;10.23;5.13;;;17.20;77.00;;;;;;5132629;27;20365;-84
2023/05/28 06:50:02;;;;;;;13.15;6.05;;;17.30;77.10;;;;;;5132902;27;20037;-84
2023/05/28 06:52:28;;;;;;;15.93;5.93;;;17.30;77.00;;;;;;5096929;27;20388;-84
2023/05/28 06:54:53;;;;;;;12.80;5.72;;;17.40;77.00;;;;;;5129528;27;20028;-85
2023/05/28 06:57:20;;;;;;;14.02;5.45;;;17.40;76.60;;;;;;5095978;27;20555;-84
2023/05/28 06:59:46;;;;;;;16.30;5.82;;;17.50;76.50;;;;;;5113759;27;20047;-84
2023/05/28 07:02:11;;;;;;;13.57;5.82;;;17.50;76.60;;;;;;5131474;27;20059;-84
2023/05/28 07:04:37;;;;;;;11.48;4.93;;;17.60;76.60;;;;;;5097980;27;20023;-84
2023/05/28 07:07:04;;;;;;;12.52;5.00;;;17.60;76.20;;;;;;5115017;27;20147;-84
2023/05/28 07:09:30;;;;;;;8.35;4.82;;;17.70;75.70;;;;;;5130936;27;20015;-85
2023/05/28 07:11:56;;;;;;;9.57;4.93;;;17.80;75.70;;;;;;5115279;27;20039;-85
2023/05/28 07:14:22;;;;;;;12.82;5.68;;;17.80;75.30;;;;;;5132450;27;20049;-84
2023/05/28 07:16:47;;;;;;;10.63;4.80;;;17.90;75.00;;;;;;5098472;28;20023;-84
2023/05/28 07:19:13;;;;;;;12.52;5.28;;;18.00;74.90;;;;;;5132524;27;20023;-84
2023/05/28 07:21:39;;;;;;;12.10;5.00;;;18.00;74.80;;;;;;5132306;27;20042;-85
2023/05/28 07:24:07;;;;;;;10.88;4.93;;;18.10;74.50;;;;;;5115220;27;20023;-85
2023/05/28 07:26:34;;;;;;;9.95;4.70;;;18.10;74.40;;;;;;5132236;27;20122;-85
2023/05/28 07:29:00;;;;;;;12.93;4.93;;;18.10;74.40;;;;;;5132175;27;20027;-85
2023/05/28 07:31:28;;;;;;;14.57;5.10;;;18.20;74.40;;;;;;5115267;27;20024;-85
2023/05/28 07:33:53;;;;;;;11.07;4.57;;;18.20;74.30;;;;;;5132375;28;20023;-85
2023/05/28 07:36:19;;;;;;;13.05;4.88;;;18.30;73.90;;;;;;5115307;28;20494;-85
2023/05/28 07:38:45;;;;;;;11.95;5.00;;;18.40;73.40;;;;;;5115130;28;20031;-85
2023/05/28 07:41:10;;;;;;;13.73;4.95;;;18.40;73.60;;;;;;5098040;28;20027;-85
2023/05/28 07:43:36;;;;;;;10.93;4.40;;;18.60;74.00;;;;;;5115072;28;20027;-86
2023/05/28 07:46:02;;;;;;;10.77;4.88;;;18.70;73.80;;;;;;5115094;28;20517;-85
2023/05/28 07:48:27;;;;;;;8.25;4.20;;;18.70;73.40;;;;;;5098035;28;20034;-85
2023/05/28 07:50:53;;;;;;;13.35;4.97;;;18.80;73.10;;;;;;5098004;28;20054;-85
2023/05/28 07:53:18;;;;;;;9.95;4.40;;;18.80;72.80;;;;;;5114945;28;20039;-85
2023/05/28 07:55:45;;;;;;;12.15;5.18;;;18.90;73.10;;;;;;5098010;28;20059;-85
2023/05/28 07:58:12;;;;;;;8.52;4.35;;;18.90;73.00;;;;;;5098180;28;20496;-85
2023/05/28 08:00:38;;;;;;;13.73;4.38;;;18.90;73.20;;;;;;5131833;27;20062;-85
2023/05/28 08:03:04;;;;;;;11.38;4.53;;;19.00;73.80;;;;;;5115003;27;20031;-85
2023/05/28 08:05:30;;;;;;;12.52;5.28;;;19.00;72.80;;;;;;5098782;27;20502;-85
2023/05/28 08:07:56;;;;;;;11.82;4.85;;;19.00;72.50;;;;;;5119875;27;20027;-85
2023/05/28 08:10:22;;;;;;;11.40;4.47;;;19.10;72.40;;;;;;5117699;27;20532;-85
2023/05/28 08:12:47;;;;;;;10.57;4.80;;;19.10;72.30;;;;;;5117493;27;20031;-85
2023/05/28 08:15:13;;;;;;;11.90;4.65;;;19.20;72.70;;;;;;5117492;27;20389;-85
2023/05/28 08:17:39;;;;;;;13.85;5.03;;;19.30;73.00;;;;;;5117376;27;20023;-85
2023/05/28 08:20:06;;;;;;;10.10;4.28;;;19.40;72.40;;;;;;5118566;27;20063;-85
2023/05/28 08:22:31;;;;;;;12.68;4.90;;;19.40;72.00;;;;;;5135735;27;20015;-85
2023/05/28 08:24:57;;;;;;;12.57;4.80;;;19.50;71.30;;;;;;5117743;27;20023;-85
2023/05/28 08:27:23;;;;;;;9.90;4.68;;;19.50;71.30;;;;;;5118394;27;20023;-85
2023/05/28 08:29:48;;;;;;;8.57;4.97;;;19.50;71.10;;;;;;5135661;27;20035;-85
2023/05/28 08:32:14;;;;;;;13.98;5.28;;;19.60;70.90;;;;;;5101561;27;20076;-85
2023/05/28 08:34:40;;;;;;;11.95;5.20;;;19.60;70.80;;;;;;5136841;27;20107;-85
2023/05/28 08:37:06;;;;;;;11.07;4.50;;;19.60;70.90;;;;;;5101426;27;20080;-85
2023/05/28 08:39:32;;;;;;;11.38;4.32;;;19.70;71.20;;;;;;5101384;27;20029;-85
2023/05/28 08:41:58;;;;;;;12.90;5.07;;;19.80;71.00;;;;;;5118254;27;20019;-85
2023/05/28 08:44:24;;;;;;;10.65;4.47;;;19.80;70.60;;;;;;5118241;27;20030;-85
2023/05/28 08:46:50;;;;;;;11.23;4.53;;;19.90;70.60;;;;;;5135509;27;20023;-86
2023/05/28 08:49:18;;;;;;;10.05;5.10;;;19.90;70.60;;;;;;5117937;27;20047;-85
2023/05/28 08:51:49;;;;;;;9.18;4.50;;;19.90;70.00;;;;;;5118041;27;20031;-85
2023/05/28 08:54:15;;;;;;;10.35;4.35;;;20.00;70.00;;;;;;5118039;27;20061;-85
2023/05/28 08:56:41;;;;;;;6.28;3.53;;;20.10;70.10;;;;;;5117829;27;20070;-85
2023/05/28 08:59:10;;;;;;;8.07;3.90;;;20.10;69.60;;;;;;5135130;27;20031;-85
2023/05/28 09:01:37;;;;;;;9.57;3.90;;;20.20;69.00;;;;;;5117998;27;20106;-85
2023/05/28 09:04:03;;;;;;;8.55;3.80;;;20.20;68.90;;;;;;5117675;27;20031;-85
2023/05/28 09:06:32;;;;;;;9.05;3.45;;;20.30;69.00;;;;;;5117914;27;20019;-85
2023/05/28 09:08:58;;;;;;;7.45;3.38;;;20.40;67.90;;;;;;5117687;27;20038;-85
2023/05/28 09:11:24;;;;;;;7.68;3.28;;;20.50;67.40;;;;;;5134860;27;20035;-85
2023/05/28 09:13:49;;;;;;;7.70;3.45;;;20.70;66.90;;;;;;5117626;27;20088;-85
2023/05/28 09:16:24;;;;;;;8.43;3.28;;;20.80;66.70;;;;;;5099262;27;20027;-85
2023/05/28 09:18:52;;;;;;;7.07;3.15;;;20.90;66.10;;;;;;5117496;27;20015;-85
2023/05/28 09:21:20;;;;;;;8.98;3.72;;;21.00;65.80;;;;;;5117476;27;20370;-85
2023/05/28 09:23:51;;;;;;;8.25;3.25;;;21.10;65.70;;;;;;5117417;27;20027;-85
2023/05/28 09:26:19;;;;;;;6.65;3.20;;;21.20;64.80;;;;;;5134362;27;20027;-85
2023/05/28 09:28:45;;;;;;;9.75;3.22;;;21.30;65.70;;;;;;5117714;27;20024;-85
2023/05/28 09:31:12;;;;;;;8.07;3.28;;;21.30;63.20;;;;;;5134319;27;20019;-85
2023/05/28 09:33:47;;;;;;;13.60;3.10;;;21.40;63.00;;;;;;5117302;27;20031;-85
2023/05/28 09:36:17;;;;;;;9.95;3.40;;;21.50;63.40;;;;;;5117131;27;20433;-85
2023/05/28 09:38:43;;;;;;;8.05;3.38;;;21.60;61.90;;;;;;5134328;27;20026;-86
2023/05/28 09:41:25;;;;;;;7.32;3.38;;;21.70;62.80;;;;;;5117103;27;20404;-86
2023/05/28 09:43:58;;;;;;;8.38;3.30;;;21.80;63.10;;;;;;5134255;27;20102;-86
2023/05/28 09:46:28;;;;;;;7.63;3.40;;;21.90;62.30;;;;;;5134120;27;20512;-86
2023/05/28 09:48:54;;;;;;;11.77;3.83;;;21.90;62.90;;;;;;5116932;27;20130;-85
2023/05/28 09:51:23;;;;;;;7.30;3.22;;;22.00;63.00;;;;;;5099914;27;20059;-85
2023/05/28 09:53:55;;;;;;;5.75;3.20;;;22.10;64.00;;;;;;5135413;27;20102;-85
2023/05/28 09:56:22;;;;;;;8.02;3.63;;;22.10;62.30;;;;;;5134044;27;20398;-84
2023/05/28 09:58:53;;;;;;;7.70;3.50;;;22.10;62.50;;;;;;5117150;27;20436;-85
2023/05/28 10:01:22;;;;;;;8.60;3.40;;;22.20;62.00;;;;;;5133859;27;20479;-85
2023/05/28 10:04:09;;;;;;;8.15;3.47;;;22.20;62.00;;;;;;5133662;27;20031;-85
2023/05/28 10:06:37;;;;;;;8.23;3.08;;;22.30;62.00;;;;;;5133658;27;20503;-86
2023/05/28 10:09:04;;;;;;;9.77;3.67;;;22.30;62.60;;;;;;5133778;27;20016;-84
2023/05/28 10:11:38;;;;;;;9.95;3.38;;;22.40;62.50;;;;;;5099677;27;20030;-85
2023/05/28 10:14:05;;;;;;;9.82;3.65;;;22.50;62.60;;;;;;5133480;27;20015;-86
2023/05/28 10:16:32;;;;;;;10.30;3.38;;;22.50;61.80;;;;;;5133325;27;20430;-85
2023/05/28 10:18:58;;;;;;;5.78;3.15;;;22.60;61.90;;;;;;5116339;27;20100;-86
2023/05/28 10:21:24;;;;;;;10.00;3.92;;;22.70;61.70;;;;;;5134710;27;20023;-85
2023/05/28 10:23:51;;;;;;;11.23;3.65;;;22.80;61.90;;;;;;5116380;27;20020;-85
2023/05/28 10:26:18;;;;;;;7.80;2.97;;;22.80;61.20;;;;;;5115988;27;20023;-85
2023/05/28 10:28:44;;;;;;;8.05;3.35;;;22.90;61.00;;;;;;5133177;27;20384;-85
2023/05/28 10:31:10;;;;;;;9.57;3.92;;;23.00;60.40;;;;;;5116200;27;20041;-85
2023/05/28 10:33:43;;;;;;;6.00;3.08;;;22.90;59.60;;;;;;5099060;27;20031;-85
2023/05/28 10:36:13;;;;;;;7.18;3.22;;;23.00;59.70;;;;;;5133108;27;20079;-85
2023/05/28 10:38:44;;;;;;;8.18;3.30;;;23.00;60.10;;;;;;5115813;27;20436;-85
2023/05/28 10:41:11;;;;;;;10.57;3.45;;;23.00;59.40;;;;;;5133177;27;20357;-85
2023/05/28 10:43:46;;;;;;;6.90;3.15;;;23.10;57.60;;;;;;5115931;27;20080;-85
2023/05/28 10:46:23;;;;;;;8.30;3.20;;;23.00;58.60;;;;;;5134153;27;20514;-85
2023/05/28 10:49:15;;;;;;;7.25;3.10;;;23.00;58.60;;;;;;5132770;27;20050;-84
2023/05/28 10:51:56;;;;;;;7.70;3.55;;;23.10;58.70;;;;;;5132925;27;20080;-85
2023/05/28 10:54:38;;;;;;;7.90;3.47;;;23.20;59.50;;;;;;5132772;27;20114;-85
2023/05/28 10:57:18;;;;;;;8.82;3.30;;;23.20;59.00;;;;;;5132926;27;20114;-85
2023/05/28 10:59:48;;;;;;;5.90;2.90;;;23.30;58.10;;;;;;5132660;27;20480;-84
2023/05/28 11:02:25;;;;;;;8.30;3.33;;;23.30;58.00;;;;;;5132622;27;20019;-85
2023/05/28 11:05:00;;;;;;;9.63;3.53;;;23.30;57.40;;;;;;5132657;27;20054;-84
2023/05/28 11:07:33;;;;;;;6.80;3.22;;;23.40;57.80;;;;;;5132640;27;20008;-84
2023/05/28 11:10:00;;;;;;;5.10;2.80;;;23.40;56.00;;;;;;5133749;27;20399;-84
2023/05/28 11:12:30;;;;;;;10.65;3.65;;;23.40;56.40;;;;;;5115391;27;20031;-85
2023/05/28 11:14:56;;;;;;;6.05;2.78;;;23.50;56.20;;;;;;5132554;27;20029;-85
2023/05/28 11:17:22;;;;;;;6.07;3.10;;;23.50;55.70;;;;;;5115415;27;20046;-85
2023/05/28 11:19:53;;;;;;;5.28;2.53;;;23.50;55.00;;;;;;5132352;27;20468;-84
2023/05/28 11:22:20;;;;;;;7.18;3.15;;;23.50;55.70;;;;;;5132246;27;20050;-85
2023/05/28 11:24:52;;;;;;;5.68;3.00;;;23.60;55.30;;;;;;5132336;27;20026;-85
2023/05/28 11:27:18;;;;;;;8.02;3.30;;;23.60;53.60;;;;;;5133494;27;20031;-85
2023/05/28 11:29:44;;;;;;;6.00;2.83;;;23.60;54.10;;;;;;5132200;27;20430;-84
2023/05/28 11:32:09;;;;;;;6.45;3.13;;;23.70;54.90;;;;;;5115086;28;20020;-84
2023/05/28 11:34:37;;;;;;;8.45;2.80;;;23.70;54.60;;;;;;5115086;28;20060;-85
2023/05/28 11:37:06;;;;;;;7.07;2.83;;;23.70;53.60;;;;;;5132140;27;20038;-84
2023/05/28 11:39:33;;;;;;;7.57;3.28;;;23.80;54.30;;;;;;5114749;28;20032;-85
2023/05/28 11:41:59;;;;;;;7.75;2.97;;;23.90;54.40;;;;;;5115204;28;20027;-84
2023/05/28 11:44:25;;;;;;;5.53;3.00;;;23.90;53.10;;;;;;5097993;28;20482;-84
2023/05/28 11:46:55;;;;;;;7.18;2.90;;;23.90;53.00;;;;;;5115045;28;20490;-84
2023/05/28 11:49:22;;;;;;;6.57;2.90;;;23.90;52.60;;;;;;5131947;28;20046;-84
2023/05/28 11:51:51;;;;;;;6.80;2.88;;;24.00;52.60;;;;;;5132126;28;20028;-85
2023/05/28 11:54:17;;;;;;;7.63;3.15;;;24.10;52.80;;;;;;5115206;28;20480;-85
2023/05/28 11:56:42;;;;;;;6.60;2.92;;;24.10;52.50;;;;;;5114834;28;20029;-85
2023/05/28 11:59:09;;;;;;;8.25;3.58;;;24.10;52.20;;;;;;5114850;28;20392;-85
2023/05/28 12:01:35;;;;;;;8.38;2.83;;;24.20;51.10;;;;;;5114873;28;20373;-84
2023/05/28 12:04:05;;;;;;;7.28;3.05;;;24.10;52.00;;;;;;5131906;28;20094;-84
2023/05/28 12:06:48;;;;;;;9.20;3.50;;;24.30;52.90;;;;;;5114997;28;20118;-84
2023/05/28 12:09:15;;;;;;;6.93;2.80;;;24.30;52.70;;;;;;5117280;28;20468;-85
2023/05/28 12:11:40;;;;;;;7.22;3.22;;;24.40;51.90;;;;;;5114910;28;20042;-85
2023/05/28 12:14:15;;;;;;;6.75;3.20;;;24.50;51.90;;;;;;5114596;28;20472;-84
2023/05/28 12:16:47;;;;;;;10.25;3.40;;;24.60;51.20;;;;;;5114931;28;20476;-84
2023/05/28 12:19:16;;;;;;;7.25;3.20;;;24.60;51.30;;;;;;5131659;27;20011;-84
2023/05/28 12:21:43;;;;;;;7.93;3.30;;;24.60;51.20;;;;;;5114799;28;20066;-85
2023/05/28 12:24:15;;;;;;;5.32;3.03;;;24.60;51.10;;;;;;5131740;27;20106;-85
2023/05/28 12:26:41;;;;;;;6.25;3.20;;;24.60;50.20;;;;;;5114483;28;20544;-84
2023/05/28 12:29:07;;;;;;;5.22;3.00;;;24.70;51.60;;;;;;5114551;28;20071;-84
2023/05/28 12:31:33;;;;;;;7.22;2.95;;;24.70;51.10;;;;;;5131689;28;20122;-84
2023/05/28 12:33:59;;;;;;;7.35;3.25;;;24.70;50.40;;;;;;5114628;28;20464;-85
2023/05/28 12:36:25;;;;;;;5.15;2.85;;;24.80;50.20;;;;;;5097683;28;20157;-84
2023/05/28 12:38:50;;;;;;;5.65;2.72;;;24.80;50.70;;;;;;5114544;28;20027;-84